M I D A S
Marine Information and Data Acquisition System
Tripno 898 of the Zeeleeuw from 2005-05-11 08:13:35 to 2005-05-11 10:35:43
Back to CruiseResearch ActivitiesStationsMapUnderway DataData graphs

EquipmentUnitsComment
TimeDGPSUTC
LatitudeDGPSDM.mWGS84
LongitudeDGPSDM.mWGS84
TemperatureSBE03/SBE38deg celciusITS90
ConductivitySBE21S/mITS90
SalinitySBE21 Practical Salinity Units
ChlorophylAChelsea fluorimeterg/lCalibrated in Aceton
Missing or incorrect values are displayed as -999
Sea surface data collected by the RV Zeeleeuw from 2005-05-11 08:13:02 to 2005-05-11 10:35:43
Time Latitude Longitude Temperature Conductivity Salinity ChlorophylA
2005-05-11 08:17:47 51°13.592 2°56.102 19.1916 0.670848 4.46932 1.881794
2005-05-11 08:18:47 51°13.567 2°56.131 19.1998 0.670848 4.46932 1.881794
2005-05-11 08:19:47 51°13.526 2°56.195 19.2908 0.670744 4.467018 1.881794
2005-05-11 08:20:47 51°13.534 2°56.262 19.2812 0.671057 4.470154 1.881794
2005-05-11 08:21:47 51°13.539 2°56.256 19.2676 0.670848 4.469238 1.881794
2005-05-11 08:22:47 51°13.536 2°56.243 19.2466 0.670848 4.469402 1.881794
2005-05-11 08:23:47 51°13.528 2°56.244 19.2142 0.670744 4.468739 1.881794
2005-05-11 08:24:52 51°13.54 2°56.217 19.2286 0.670744 4.468985 1.881794
2005-05-11 08:25:52 51°13.563 2°56.132 19.1872 0.670744 4.469231 1.848084
2005-05-11 08:26:52 51°13.603 2°56.027 19.1979 0.67064 4.468732 1.848084
2005-05-11 08:27:52 51°13.658 2°55.896 19.1831 0.67064 4.468732 1.848084
2005-05-11 08:28:52 51°13.723 2°55.758 19.1277 0.67064 4.468896 1.848084
2005-05-11 08:29:52 51°13.804 2°55.66 19.1887 0.670535 4.468315 1.848084
2005-05-11 08:30:52 51°13.898 2°55.591 19.1975 0.670535 4.468397 1.814375
2005-05-11 08:31:52 51°14.007 2°55.523 19.1776 0.670535 4.468561 1.848084
2005-05-11 08:32:52 51°14.111 2°55.454 19.2021 0.670535 4.468643 1.848084
2005-05-11 08:33:52 51°14.213 2°55.346 19.1628 0.670431 4.468062 1.848084
2005-05-11 08:34:51 51°14.314 2°55.182 19.1456 0.67064 4.469635 1.814375
2005-05-11 08:35:52 51°14.403 2°54.911 19.0418 0.67064 4.469881 1.848084
2005-05-11 08:36:52 51°14.447 2°54.562 18.9492 0.670744 4.47038 1.848084
2005-05-11 08:37:52 51°14.535 2°54.216 18.6725 0.670535 4.467905 1.848084
2005-05-11 08:38:52 51°14.667 2°53.916 18.6777 0.670535 4.467741 1.814375
2005-05-11 08:39:52 51°14.794 2°53.613 18.6036 0.670431 4.466996 1.814375
2005-05-11 08:40:52 51°14.884 2°53.353 18.5974 0.670431 4.46757 1.814375
2005-05-11 08:41:52 51°14.926 2°53.133 18.5577 0.670431 4.46757 1.814375
2005-05-11 08:42:52 51°14.948 2°52.916 18.571 0.670431 4.467734 1.780665
2005-05-11 08:43:52 51°14.92 2°52.689 18.5784 0.670326 4.467071 1.814375
2005-05-11 08:44:52 51°14.897 2°52.459 18.5796 0.670222 4.466408 1.814375
2005-05-11 08:45:52 51°14.875 2°52.225 18.5784 0.670222 4.466408 1.780665
2005-05-11 08:46:52 51°14.852 2°51.991 18.5881 0.670222 4.466408 1.780665
2005-05-11 08:47:51 51°14.825 2°51.701 18.5832 0.670326 4.467399 1.814375
2005-05-11 08:48:52 51°14.765 2°51.349 18.5925 0.670117 4.46599 1.780665
2005-05-11 08:49:52 51°14.675 2°51.004 18.6153 0.670117 4.466072 1.780665
2005-05-11 08:50:51 51°14.565 2°50.688 18.5927 0.670117 4.466482 1.814375
2005-05-11 08:51:52 51°14.463 2°50.378 18.6016 0.670117 4.466646 1.780665
2005-05-11 08:52:51 51°14.37 2°50.094 18.5929 0.670117 4.466646 1.746956
2005-05-11 08:53:52 51°14.272 2°49.802 18.535 0.670013 4.465819 1.780665
2005-05-11 08:54:52 51°14.174 2°49.516 18.6252 0.670013 4.465409 1.746956
2005-05-11 08:55:52 51°14.081 2°49.23 18.6243 0.670013 4.465655 1.746956
2005-05-11 08:56:51 51°13.981 2°48.955 18.5996 0.669908 4.464992 1.746956
2005-05-11 08:57:52 51°13.874 2°48.669 18.6514 0.669908 4.464992 1.780665
2005-05-11 08:58:52 51°13.79 2°48.409 18.6494 0.669908 4.464746 1.746956
2005-05-11 08:59:52 51°13.782 2°48.249 18.624 0.669804 4.46441 1.780665
2005-05-11 09:00:51 51°13.768 2°48.179 18.6631 0.669804 4.46441 1.746956
2005-05-11 09:01:52 51°13.748 2°48.117 18.6439 0.6697 4.463993 1.713247
2005-05-11 09:02:51 51°13.771 2°48.048 18.6997 0.6697 4.464239 1.746956
2005-05-11 09:03:51 51°13.772 2°48.01 18.6676 0.669595 4.463411 1.746956
2005-05-11 09:04:51 51°13.766 2°47.975 18.6758 0.669595 4.463575 1.746956
2005-05-11 09:05:52 51°13.756 2°47.943 18.6934 0.669595 4.463575 1.746956
2005-05-11 09:06:51 51°13.744 2°47.914 18.6872 0.669595 4.463575 1.713247
2005-05-11 09:07:51 51°13.728 2°47.889 18.686 0.669595 4.463821 1.713247
2005-05-11 09:08:52 51°13.709 2°47.865 18.6975 0.669491 4.462994 1.713247
2005-05-11 09:09:52 51°13.689 2°47.843 18.7109 0.669595 4.463985 1.746956
2005-05-11 09:10:52 51°13.694 2°47.846 18.6849 0.669491 4.46324 1.713247
2005-05-11 09:11:52 51°13.738 2°47.872 18.7009 0.669491 4.463404 1.713247
2005-05-11 09:12:52 51°13.768 2°47.929 18.6855 0.669491 4.463322 1.746956
2005-05-11 09:13:52 51°13.798 2°47.983 18.7156 0.669491 4.46324 1.713247
2005-05-11 09:14:51 51°13.824 2°48.036 18.7085 0.669386 4.462576 1.679537
2005-05-11 09:15:51 51°13.847 2°48.096 18.716 0.669386 4.462576 1.679537
2005-05-11 09:16:52 51°13.87 2°48.157 18.7213 0.669386 4.462576 1.713247
2005-05-11 09:17:52 51°13.893 2°48.217 18.7198 0.669386 4.462658 1.713247
2005-05-11 09:18:51 51°13.911 2°48.277 18.7237 0.669282 4.461913 1.713247
2005-05-11 09:19:52 51°13.927 2°48.344 18.7278 0.669386 4.46274 1.713247
2005-05-11 09:20:51 51°13.944 2°48.409 18.7538 0.669282 4.461995 1.679537
2005-05-11 09:21:51 51°13.96 2°48.475 18.7262 0.669282 4.462159 1.713247
2005-05-11 09:22:52 51°13.976 2°48.541 18.7379 0.669282 4.462159 1.679537
2005-05-11 09:23:52 51°13.992 2°48.606 18.756 0.669282 4.461995 1.713247
2005-05-11 09:24:52 51°14.007 2°48.671 18.7599 0.669282 4.462159 1.679537
2005-05-11 09:25:52 51°14.024 2°48.736 18.7616 0.669282 4.462077 1.679537
2005-05-11 09:26:52 51°14.04 2°48.803 18.7723 0.669177 4.461495 1.713247
2005-05-11 09:27:52 51°14.055 2°48.87 18.7346 0.669282 4.462323 1.645828
2005-05-11 09:28:51 51°14.071 2°48.933 18.7492 0.669177 4.461413 1.645828
2005-05-11 09:29:52 51°14.089 2°49.001 18.7742 0.669177 4.461741 1.679537
2005-05-11 09:30:52 51°14.106 2°49.066 18.7925 0.669177 4.461577 1.679537
2005-05-11 09:31:52 51°14.121 2°49.13 18.8091 0.669177 4.461741 1.645828
2005-05-11 09:32:52 51°14.137 2°49.195 18.7865 0.669177 4.461577 1.645828
2005-05-11 09:33:52 51°14.154 2°49.261 18.7953 0.669177 4.461659 1.679537
2005-05-11 09:34:52 51°14.169 2°49.327 18.8057 0.669073 4.461077 1.645828
2005-05-11 09:35:52 51°14.186 2°49.394 18.8128 0.669073 4.461159 1.679537
2005-05-11 09:36:52 51°14.204 2°49.461 18.8311 0.669073 4.461159 1.645828
2005-05-11 09:37:52 51°14.223 2°49.53 18.861 0.669073 4.461323 1.645828
2005-05-11 09:38:52 51°14.24 2°49.599 18.8464 0.669073 4.461323 1.645828
2005-05-11 09:39:52 51°14.257 2°49.664 18.8698 0.669073 4.461569 1.679537
2005-05-11 09:40:52 51°14.271 2°49.722 18.8726 0.668969 4.460742 1.612118
2005-05-11 09:41:52 51°14.285 2°49.777 18.8804 0.669073 4.461651 1.645828
2005-05-11 09:42:52 51°14.296 2°49.831 18.8833 0.668969 4.460988 1.612118
2005-05-11 09:43:52 51°14.309 2°49.886 18.8962 0.668969 4.46107 1.645828
2005-05-11 09:44:52 51°14.321 2°49.94 18.9145 0.668969 4.461234 1.645828
2005-05-11 09:45:52 51°14.333 2°49.997 18.9039 0.668969 4.461152 1.645828
2005-05-11 09:46:51 51°14.343 2°50.051 18.9174 0.668969 4.461234 1.645828
2005-05-11 09:47:52 51°14.355 2°50.108 18.9244 0.668864 4.460734 1.679537
2005-05-11 09:48:52 51°14.369 2°50.165 18.9526 0.668864 4.460652 1.612118
2005-05-11 09:49:52 51°14.379 2°50.224 18.9323 0.668864 4.460734 1.645828
2005-05-11 09:50:51 51°14.391 2°50.278 18.9653 0.668864 4.460816 1.612118
2005-05-11 09:51:52 51°14.407 2°50.359 18.9528 0.668864 4.46098 1.645828
2005-05-11 09:52:52 51°14.415 2°50.447 18.9571 0.668864 4.461062 1.612118
2005-05-11 09:53:52 51°14.41 2°50.528 18.98 0.668864 4.461226 1.612118
2005-05-11 09:54:51 51°14.404 2°50.57 18.975 0.668864 4.461308 1.612118
2005-05-11 09:55:52 51°14.394 2°50.586 18.9825 0.66876 4.460644 1.645828
2005-05-11 09:56:52 51°14.382 2°50.584 18.9896 0.66876 4.460562 1.612118
2005-05-11 09:57:52 51°14.365 2°50.571 19.0228 0.66876 4.460644 1.612118
2005-05-11 09:58:52 51°14.348 2°50.553 19.0218 0.668655 4.459734 1.645828
2005-05-11 09:59:51 51°14.329 2°50.538 19.0595 0.66876 4.460316 1.612118
2005-05-11 10:00:52 51°14.329 2°50.616 19.0273 0.668655 4.45957 1.612118
2005-05-11 10:01:52 51°14.349 2°50.74 19.0321 0.66876 4.460398 1.612118
2005-05-11 10:02:52 51°14.365 2°50.881 19.0586 0.668655 4.45998 1.612118
2005-05-11 10:03:52 51°14.384 2°51.024 19.0356 0.668655 4.45998 1.612118
2005-05-11 10:04:52 51°14.409 2°51.165 19.0285 0.668655 4.460144 1.612118
2005-05-11 10:05:52 51°14.435 2°51.315 19.0206 0.66876 4.461218 1.578409
2005-05-11 10:06:52 51°14.466 2°51.488 19.0561 0.668655 4.460554 1.612118
2005-05-11 10:07:52 51°14.501 2°51.669 19.0824 0.668551 4.459726 1.578409
2005-05-11 10:08:52 51°14.534 2°51.85 19.067 0.668655 4.460636 1.612118
2005-05-11 10:09:52 51°14.569 2°52.031 19.0742 0.668655 4.4608 1.578409
2005-05-11 10:10:52 51°14.605 2°52.213 19.0566 0.668655 4.460964 1.578409
2005-05-11 10:11:52 51°14.641 2°52.401 19.0585 0.668551 4.460382 1.612118
2005-05-11 10:12:52 51°14.669 2°52.594 19.0683 0.668551 4.46071 1.578409
2005-05-11 10:13:52 51°14.681 2°52.794 19.0812 0.668551 4.460956 1.612118
2005-05-11 10:14:52 51°14.685 2°53.001 19.1061 0.668551 4.461038 1.612118
2005-05-11 10:15:52 51°14.686 2°53.204 19.0959 0.668551 4.461038 1.578409
2005-05-11 10:16:52 51°14.662 2°53.413 19.1154 0.668551 4.461531 1.612118
2005-05-11 10:17:52 51°14.637 2°53.641 19.1232 0.668551 4.461695 1.578409
2005-05-11 10:18:52 51°14.592 2°53.884 19.1558 0.668551 4.461941 1.578409
2005-05-11 10:19:52 51°14.548 2°54.131 19.1562 0.668551 4.462351 1.578409
2005-05-11 10:20:52 51°14.51 2°54.379 19.1698 0.668551 4.462516 1.5447
2005-05-11 10:21:52 51°14.484 2°54.629 19.1792 0.668551 4.462598 1.612118
2005-05-11 10:22:52 51°14.429 2°54.87 19.2457 0.668551 4.462762 1.578409
2005-05-11 10:23:52 51°14.341 2°55.092 19.2392 0.668551 4.463008 1.578409
2005-05-11 10:24:52 51°14.252 2°55.279 19.2544 0.668551 4.463173 1.578409
2005-05-11 10:25:52 51°14.16 2°55.415 19.2681 0.668551 4.463337 1.5447
2005-05-11 10:26:51 51°14.049 2°55.51 19.2859 0.668551 4.463255 1.578409
2005-05-11 10:27:52 51°13.917 2°55.588 19.2921 0.668551 4.463666 1.5447
2005-05-11 10:28:53 51°13.805 2°55.66 19.3361 0.668551 4.463994 1.578409
2005-05-11 10:29:53 51°13.72 2°55.762 19.3574 0.668551 4.464159 1.5447
2005-05-11 10:30:54 51°13.668 2°55.867 19.3806 0.668551 4.464405 1.5447
2005-05-11 10:31:53 51°13.628 2°55.967 19.4077 0.668551 4.464569 1.5447
2005-05-11 10:32:53 51°13.607 2°56.064 19.3802 0.668551 4.464898 1.5447
2005-05-11 10:33:53 51°13.595 2°56.1 19.4165 0.668551 4.465145 1.5447